Time;durP1;ratioP1;P1;durP2;ratioP2;P2;SDS_P1;SDS_P2;PMS_P1;PMS_P2;Temp;Humidity;BMP_temperature;BMP_pressure;BME280_temperature;BME280_humidity;BME280_pressure;Samples;Min_cycle;Max_cycle;Signal;HPM_P1;HPM_P2
2022/10/08 00:01:36;;;;;;;3.53;2.78;;;;;;;;;;6202324;28;20145;-74
2022/10/08 00:04:37;;;;;;;6.27;5.43;;;;;;;;;;6199738;28;20014;-74
2022/10/08 00:07:37;;;;;;;2.10;2.00;;;;;;;;;;6198405;28;20041;-74
2022/10/08 00:10:37;;;;;;;6.22;4.63;;;;;;;;;;6197826;28;20277;-74
2022/10/08 00:13:41;;;;;;;1.20;1.15;;;;;;;;;;6200263;28;20460;-74
2022/10/08 00:16:42;;;;;;;3.10;2.95;;;;;;;;;;6198392;28;20513;-74
2022/10/08 00:19:42;;;;;;;2.10;2.00;;;;;;;;;;6192289;28;20648;-74
2022/10/08 00:22:42;;;;;;;3.20;2.90;;;;;;;;;;6174711;28;20075;-74
2022/10/08 00:25:43;;;;;;;3.73;2.13;;;;;;;;;;6172534;28;20085;-74
2022/10/08 00:28:44;;;;;;;2.10;1.90;;;;;;;;;;6169950;28;20046;-74
2022/10/08 00:31:46;;;;;;;5.53;2.80;;;;;;;;;;6158039;28;20057;-74
2022/10/08 00:34:46;;;;;;;2.30;2.20;;;;;;;;;;6172530;28;20026;-73
2022/10/08 00:37:46;;;;;;;11.30;1.85;;;;;;;;;;6169930;28;20030;-73
2022/10/08 00:40:47;;;;;;;0.65;0.65;;;;;;;;;;6173751;28;20053;-73
2022/10/08 00:43:52;;;;;;;2.35;1.83;;;;;;;;;;6173905;28;20054;-73
2022/10/08 00:46:52;;;;;;;2.60;2.35;;;;;;;;;;6170671;28;20041;-73
2022/10/08 00:49:54;;;;;;;3.22;1.88;;;;;;;;;;6154300;28;20023;-73
2022/10/08 00:52:56;;;;;;;2.00;1.90;;;;;;;;;;6172173;28;20019;-74
2022/10/08 00:55:57;;;;;;;1.40;1.40;;;;;;;;;;6172731;28;20030;-73
2022/10/08 00:58:57;;;;;;;0.68;0.68;;;;;;;;;;6175529;28;20027;-73
2022/10/08 01:01:57;;;;;;;0.52;0.52;;;;;;;;;;6162603;28;20520;-73
2022/10/08 01:04:58;;;;;;;3.50;3.22;;;;;;;;;;6151330;28;20471;-73
2022/10/08 01:08:03;;;;;;;3.13;1.95;;;;;;;;;;6175891;28;20278;-73
2022/10/08 01:11:24;;;;;;;0.82;0.82;;;;;;;;;;6155235;28;20028;-73
2022/10/08 01:14:38;;;;;;;0.70;0.70;;;;;;;;;;6175636;28;20478;-73
2022/10/08 01:17:41;;;;;;;0.63;0.63;;;;;;;;;;6154990;28;20437;-73
2022/10/08 01:20:44;;;;;;;1.67;1.58;;;;;;;;;;6173629;28;20018;-74
2022/10/08 01:23:57;;;;;;;2.40;1.92;;;;;;;;;;6154683;28;20564;-73
2022/10/08 01:27:02;;;;;;;2.03;1.92;;;;;;;;;;6165522;28;20015;-73
2022/10/08 01:30:05;;;;;;;1.55;1.00;;;;;;;;;;6177745;28;20053;-73
2022/10/08 01:33:25;;;;;;;3.25;3.05;;;;;;;;;;6173056;28;20026;-73
2022/10/08 01:36:27;;;;;;;7.90;2.10;;;;;;;;;;6172349;28;20043;-73
2022/10/08 01:39:30;;;;;;;8.00;4.50;;;;;;;;;;6168924;28;20027;-73
2022/10/08 01:42:32;;;;;;;6.43;3.17;;;;;;;;;;6174283;28;20153;-73
2022/10/08 01:45:34;;;;;;;1.75;1.65;;;;;;;;;;6172968;28;20027;-73
2022/10/08 01:48:36;;;;;;;3.30;3.00;;;;;;;;;;6173019;28;20015;-73
2022/10/08 01:51:43;;;;;;;2.40;2.30;;;;;;;;;;6163107;28;20011;-73
2022/10/08 01:54:44;;;;;;;2.38;2.20;;;;;;;;;;6170615;28;20023;-73
2022/10/08 01:57:46;;;;;;;5.28;3.15;;;;;;;;;;6171002;28;20022;-73
2022/10/08 02:00:48;;;;;;;1.60;1.55;;;;;;;;;;6173010;28;20046;-73
2022/10/08 02:07:14;;;;;;;1.60;1.50;;;;;;;;;;6172417;28;20026;-73
2022/10/08 02:10:16;;;;;;;1.08;1.08;;;;;;;;;;6158918;28;20029;-73
2022/10/08 02:13:17;;;;;;;2.30;2.13;;;;;;;;;;6177710;28;20058;-73
2022/10/08 02:16:25;;;;;;;1.40;1.30;;;;;;;;;;6172654;28;20027;-73
2022/10/08 02:19:31;;;;;;;4.00;3.70;;;;;;;;;;6155240;28;20414;-73
2022/10/08 02:22:33;;;;;;;0.93;0.93;;;;;;;;;;6169322;28;20049;-73
2022/10/08 02:25:33;;;;;;;;;;;;;;;;;;6172449;28;20094;-73
2022/10/08 02:28:35;;;;;;;4.22;1.92;;;;;;;;;;6169204;28;20363;-74
2022/10/08 02:31:39;;;;;;;3.80;2.28;;;;;;;;;;6172978;28;20417;-73
2022/10/08 02:34:52;;;;;;;2.05;1.92;;;;;;;;;;6172110;28;20117;-73
2022/10/08 02:38:02;;;;;;;3.90;2.70;;;;;;;;;;6172964;28;20019;-73
2022/10/08 02:41:03;;;;;;;4.75;4.25;;;;;;;;;;6170061;28;20154;-73
2022/10/08 02:44:06;;;;;;;6.38;2.45;;;;;;;;;;6173220;28;20062;-73
2022/10/08 02:47:09;;;;;;;3.47;2.47;;;;;;;;;;6168292;28;20022;-73
2022/10/08 02:50:11;;;;;;;1.05;1.00;;;;;;;;;;6171982;28;20031;-73
2022/10/08 02:53:13;;;;;;;3.47;2.80;;;;;;;;;;6154886;28;20031;-73
2022/10/08 02:56:23;;;;;;;1.95;1.85;;;;;;;;;;6174648;28;20026;-73
2022/10/08 02:59:24;;;;;;;3.30;3.10;;;;;;;;;;6172743;28;20018;-74
2022/10/08 03:02:39;;;;;;;1.13;1.05;;;;;;;;;;6172612;28;20395;-74
2022/10/08 03:05:40;;;;;;;2.63;2.40;;;;;;;;;;6173143;28;20109;-73
2022/10/08 03:08:43;;;;;;;1.27;1.20;;;;;;;;;;6156687;28;20497;-74
2022/10/08 03:11:43;;;;;;;1.95;1.85;;;;;;;;;;6154332;28;20033;-74
2022/10/08 03:14:46;;;;;;;1.08;1.02;;;;;;;;;;6171839;28;20035;-74
2022/10/08 03:17:47;;;;;;;15.68;2.33;;;;;;;;;;6171187;28;20030;-74
2022/10/08 03:20:49;;;;;;;2.10;1.45;;;;;;;;;;6176072;28;20054;-74
2022/10/08 03:23:49;;;;;;;2.78;2.15;;;;;;;;;;6169730;28;20121;-74
2022/10/08 03:26:51;;;;;;;4.72;4.35;;;;;;;;;;6174555;28;20021;-74
2022/10/08 03:29:55;;;;;;;2.40;2.20;;;;;;;;;;6174318;28;20023;-74
2022/10/08 03:32:56;;;;;;;2.17;1.73;;;;;;;;;;6173804;28;20543;-74
2022/10/08 03:35:57;;;;;;;3.30;3.05;;;;;;;;;;6169830;28;20030;-74
2022/10/08 03:38:57;;;;;;;3.43;1.20;;;;;;;;;;6175090;28;20101;-74
2022/10/08 03:41:57;;;;;;;0.63;0.63;;;;;;;;;;6171424;28;20521;-74
2022/10/08 03:45:00;;;;;;;1.70;1.65;;;;;;;;;;6173512;28;20050;-74
2022/10/08 03:48:00;;;;;;;0.95;0.93;;;;;;;;;;6176561;28;20307;-74
2022/10/08 03:51:02;;;;;;;4.10;2.88;;;;;;;;;;6176352;28;20172;-74
2022/10/08 03:54:02;;;;;;;4.70;4.28;;;;;;;;;;6163986;28;20302;-74
2022/10/08 03:57:03;;;;;;;1.42;1.33;;;;;;;;;;6157615;28;20021;-74
2022/10/08 04:00:03;;;;;;;6.40;2.25;;;;;;;;;;6172878;28;20111;-73
2022/10/08 04:03:03;;;;;;;2.07;1.97;;;;;;;;;;6176077;28;20561;-73
2022/10/08 04:06:04;;;;;;;4.43;3.70;;;;;;;;;;6159023;28;20023;-73
2022/10/08 04:09:04;;;;;;;2.37;2.23;;;;;;;;;;6157063;28;20025;-73
2022/10/08 04:12:04;;;;;;;0.25;0.25;;;;;;;;;;6168973;28;20418;-73
2022/10/08 04:15:05;;;;;;;0.55;0.55;;;;;;;;;;6174772;28;20038;-73
2022/10/08 04:18:06;;;;;;;2.78;2.55;;;;;;;;;;6158776;28;20027;-73
2022/10/08 04:21:07;;;;;;;1.55;1.45;;;;;;;;;;6168849;28;20102;-73
2022/10/08 04:24:08;;;;;;;0.55;0.55;;;;;;;;;;6174724;28;20015;-73
2022/10/08 04:27:08;;;;;;;2.33;2.10;;;;;;;;;;6175681;28;20033;-73
2022/10/08 04:30:08;;;;;;;1.77;1.67;;;;;;;;;;6174438;28;20027;-73
2022/10/08 04:33:09;;;;;;;5.97;5.63;;;;;;;;;;6176016;28;20321;-73
2022/10/08 04:36:10;;;;;;;1.08;1.08;;;;;;;;;;6180349;28;20138;-74
2022/10/08 04:39:10;;;;;;;4.68;3.42;;;;;;;;;;6169624;28;20026;-73
2022/10/08 04:42:10;;;;;;;0.50;0.50;;;;;;;;;;6169599;28;20012;-73
2022/10/08 04:45:10;;;;;;;2.83;2.20;;;;;;;;;;6175321;28;20066;-73
2022/10/08 04:48:11;;;;;;;7.00;2.65;;;;;;;;;;6176518;28;20383;-74
2022/10/08 04:51:11;;;;;;;2.08;1.98;;;;;;;;;;6157776;28;20010;-73
2022/10/08 04:54:12;;;;;;;3.20;2.90;;;;;;;;;;6156576;28;20106;-73
2022/10/08 04:57:12;;;;;;;2.00;1.88;;;;;;;;;;6148615;28;20367;-73
2022/10/08 05:00:12;;;;;;;1.50;1.40;;;;;;;;;;6173860;28;20016;-74
2022/10/08 05:03:13;;;;;;;0.30;0.30;;;;;;;;;;6166439;28;20361;-73
2022/10/08 05:06:14;;;;;;;0.75;0.75;;;;;;;;;;6151900;28;20018;-74
2022/10/08 05:09:14;;;;;;;3.08;2.78;;;;;;;;;;6171837;28;20026;-74
2022/10/08 05:12:14;;;;;;;9.30;2.53;;;;;;;;;;6174062;28;20394;-74
2022/10/08 05:15:15;;;;;;;3.08;2.63;;;;;;;;;;6166516;28;20361;-74
2022/10/08 05:18:15;;;;;;;3.73;3.40;;;;;;;;;;6155731;28;20022;-73
2022/10/08 05:21:17;;;;;;;5.70;1.52;;;;;;;;;;6153210;28;20143;-73
2022/10/08 05:24:17;;;;;;;2.47;2.28;;;;;;;;;;6168098;28;20024;-73
2022/10/08 05:27:17;;;;;;;0.30;0.30;;;;;;;;;;6172245;28;20018;-73
2022/10/08 05:30:17;;;;;;;1.60;1.55;;;;;;;;;;6171494;28;20434;-73
2022/10/08 05:33:18;;;;;;;2.05;1.90;;;;;;;;;;6171943;28;20254;-73
2022/10/08 05:36:22;;;;;;;3.05;2.85;;;;;;;;;;6154307;28;20042;-74
2022/10/08 05:39:22;;;;;;;2.90;2.03;;;;;;;;;;6154436;28;20039;-73
2022/10/08 05:42:22;;;;;;;0.75;0.65;;;;;;;;;;6170687;28;20025;-73
2022/10/08 05:45:22;;;;;;;1.03;0.93;;;;;;;;;;6167280;28;20327;-73
2022/10/08 05:48:23;;;;;;;1.33;1.25;;;;;;;;;;6171660;28;20262;-74
2022/10/08 05:51:23;;;;;;;2.20;2.10;;;;;;;;;;6166544;28;20471;-74
2022/10/08 05:54:23;;;;;;;3.00;2.87;;;;;;;;;;6171262;28;20023;-74
2022/10/08 05:57:24;;;;;;;3.40;3.20;;;;;;;;;;6160422;28;20030;-74
2022/10/08 06:00:25;;;;;;;0.60;0.60;;;;;;;;;;6143759;28;20026;-73
2022/10/08 06:03:25;;;;;;;4.88;3.10;;;;;;;;;;6164807;28;20031;-74
2022/10/08 06:06:26;;;;;;;2.93;2.73;;;;;;;;;;6158981;28;20093;-74
2022/10/08 06:09:26;;;;;;;3.93;3.57;;;;;;;;;;6148932;28;20046;-74
2022/10/08 06:12:26;;;;;;;6.07;2.67;;;;;;;;;;6140333;28;20061;-74
2022/10/08 06:15:26;;;;;;;3.57;3.03;;;;;;;;;;6163867;28;20022;-74
2022/10/08 06:18:28;;;;;;;9.15;5.90;;;;;;;;;;6158607;28;20026;-74
2022/10/08 06:21:28;;;;;;;7.95;4.65;;;;;;;;;;6151029;28;20029;-74
2022/10/08 06:24:28;;;;;;;1.70;1.60;;;;;;;;;;6139402;28;20008;-74
2022/10/08 06:27:28;;;;;;;2.58;2.38;;;;;;;;;;6164866;28;20042;-74
2022/10/08 06:30:29;;;;;;;3.50;3.07;;;;;;;;;;6144629;28;20288;-74
2022/10/08 06:33:29;;;;;;;4.63;3.13;;;;;;;;;;6142798;28;20016;-73
2022/10/08 06:36:30;;;;;;;5.23;4.03;;;;;;;;;;6169897;28;20034;-73
2022/10/08 06:39:30;;;;;;;1.97;1.87;;;;;;;;;;6160716;28;20059;-73
2022/10/08 06:42:30;;;;;;;1.77;1.67;;;;;;;;;;6152060;28;20030;-74
2022/10/08 06:45:30;;;;;;;17.40;3.03;;;;;;;;;;6154264;28;20854;-72
2022/10/08 06:48:31;;;;;;;6.67;3.50;;;;;;;;;;6164333;28;20162;-72
2022/10/08 06:51:31;;;;;;;4.60;3.80;;;;;;;;;;6165548;28;20023;-72
2022/10/08 06:54:31;;;;;;;1.50;1.23;;;;;;;;;;6169304;28;20021;-72
2022/10/08 06:57:31;;;;;;;3.88;3.55;;;;;;;;;;6164368;28;20109;-72
2022/10/08 07:00:32;;;;;;;1.25;1.23;;;;;;;;;;6164607;28;20027;-72
2022/10/08 07:03:32;;;;;;;12.00;2.90;;;;;;;;;;6174317;28;20486;-73
2022/10/08 07:06:32;;;;;;;4.57;4.17;;;;;;;;;;6153475;28;20415;-73
2022/10/08 07:09:33;;;;;;;6.90;3.80;;;;;;;;;;6160813;28;20015;-73
2022/10/08 07:12:33;;;;;;;3.30;3.03;;;;;;;;;;6155688;28;20018;-73
2022/10/08 07:15:33;;;;;;;3.13;2.73;;;;;;;;;;6172382;28;20018;-72
2022/10/08 07:18:34;;;;;;;19.30;3.73;;;;;;;;;;6167617;28;20394;-72
2022/10/08 07:21:34;;;;;;;3.80;2.72;;;;;;;;;;6173823;28;20219;-73
2022/10/08 07:24:34;;;;;;;1.27;1.27;;;;;;;;;;6170037;28;20011;-73
2022/10/08 07:27:35;;;;;;;2.63;2.42;;;;;;;;;;6153636;28;20006;-73
2022/10/08 07:30:35;;;;;;;10.63;3.47;;;;;;;;;;6172883;28;20085;-73
2022/10/08 07:33:35;;;;;;;3.60;2.67;;;;;;;;;;6173395;28;20019;-73
2022/10/08 07:36:36;;;;;;;3.03;2.17;;;;;;;;;;6157072;28;20030;-73
2022/10/08 07:39:36;;;;;;;2.22;2.13;;;;;;;;;;6157507;28;20026;-73
2022/10/08 07:42:36;;;;;;;6.93;4.78;;;;;;;;;;6168849;28;20043;-73
2022/10/08 07:45:42;;;;;;;6.53;2.30;;;;;;;;;;6160719;28;20505;-73
2022/10/08 07:48:42;;;;;;;4.18;3.80;;;;;;;;;;6178195;28;20023;-73
2022/10/08 07:51:43;;;;;;;2.60;2.40;;;;;;;;;;6176451;28;20058;-73
2022/10/08 07:54:44;;;;;;;1.63;1.52;;;;;;;;;;6173720;28;20030;-73
2022/10/08 07:57:45;;;;;;;2.03;1.63;;;;;;;;;;6171702;28;20030;-73
2022/10/08 08:00:45;;;;;;;1.63;1.52;;;;;;;;;;6174707;28;20063;-73
2022/10/08 08:03:50;;;;;;;2.10;1.90;;;;;;;;;;6158187;28;20017;-73
2022/10/08 08:06:51;;;;;;;2.28;2.08;;;;;;;;;;6157845;28;20088;-73
2022/10/08 08:09:51;;;;;;;3.22;2.92;;;;;;;;;;6181069;28;20027;-72
2022/10/08 08:12:51;;;;;;;1.73;1.63;;;;;;;;;;6162567;28;20503;-72
2022/10/08 08:15:55;;;;;;;1.37;1.27;;;;;;;;;;6175295;28;20034;-73
2022/10/08 08:18:57;;;;;;;1.88;1.73;;;;;;;;;;6158734;28;20021;-73
2022/10/08 08:21:57;;;;;;;1.27;1.20;;;;;;;;;;6177354;28;20648;-73
2022/10/08 08:24:57;;;;;;;1.67;1.58;;;;;;;;;;6174824;28;20058;-72
2022/10/08 08:27:57;;;;;;;2.17;1.57;;;;;;;;;;6172550;28;20015;-73
2022/10/08 08:31:14;;;;;;;0.77;0.77;;;;;;;;;;6170195;28;20391;-73
2022/10/08 08:34:16;;;;;;;0.95;0.95;;;;;;;;;;6167658;28;20026;-72
2022/10/08 08:37:17;;;;;;;1.02;0.95;;;;;;;;;;6171945;28;20402;-72
2022/10/08 08:40:17;;;;;;;7.60;1.87;;;;;;;;;;6171354;28;20023;-72
2022/10/08 08:43:17;;;;;;;2.07;0.60;;;;;;;;;;6173001;28;20026;-72
2022/10/08 08:46:20;;;;;;;0.70;0.70;;;;;;;;;;6175293;28;20074;-73
2022/10/08 08:49:25;;;;;;;1.15;1.15;;;;;;;;;;6170566;28;20482;-73
2022/10/08 08:52:27;;;;;;;1.17;1.08;;;;;;;;;;6169155;28;20030;-72
2022/10/08 08:55:41;;;;;;;2.50;0.90;;;;;;;;;;6153920;28;20026;-71
2022/10/08 08:58:44;;;;;;;0.50;0.50;;;;;;;;;;6149413;28;20570;-72
2022/10/08 09:01:45;;;;;;;4.05;2.33;;;;;;;;;;6156495;28;20030;-72
2022/10/08 09:04:45;;;;;;;;;;;;;;;;;;6174452;28;20023;-73
2022/10/08 09:07:48;;;;;;;0.93;0.57;;;;;;;;;;6166790;28;19921;-72
2022/10/08 09:10:51;;;;;;;1.25;1.15;;;;;;;;;;6171252;28;20026;-73
2022/10/08 09:14:10;;;;;;;1.55;1.25;;;;;;;;;;6172483;28;20076;-72
2022/10/08 09:17:15;;;;;;;1.80;1.70;;;;;;;;;;6164939;28;20022;-74
2022/10/08 09:20:16;;;;;;;1.40;1.40;;;;;;;;;;6170347;28;20098;-72
2022/10/08 09:23:18;;;;;;;2.30;1.63;;;;;;;;;;6155857;28;20019;-73
2022/10/08 09:26:19;;;;;;;0.82;0.80;;;;;;;;;;6172633;28;20378;-74
2022/10/08 09:29:19;;;;;;;;;;;;;;;;;;6155392;28;20398;-74
2022/10/08 09:32:20;;;;;;;2.63;1.65;;;;;;;;;;6167943;28;20310;-74
2022/10/08 09:35:21;;;;;;;2.30;2.00;;;;;;;;;;6169649;28;20023;-73
2022/10/08 09:38:26;;;;;;;1.10;0.83;;;;;;;;;;6171931;28;20026;-73
2022/10/08 09:41:27;;;;;;;1.35;0.80;;;;;;;;;;6168814;28;20027;-74
2022/10/08 09:44:37;;;;;;;2.15;1.33;;;;;;;;;;6168192;28;20076;-72
2022/10/08 09:47:37;;;;;;;1.60;0.70;;;;;;;;;;6153905;28;20457;-73
2022/10/08 09:50:37;;;;;;;4.07;2.45;;;;;;;;;;6170531;28;20379;-72
2022/10/08 09:53:39;;;;;;;2.40;2.20;;;;;;;;;;6169457;28;20039;-73
2022/10/08 09:56:40;;;;;;;1.85;1.30;;;;;;;;;;6167098;28;20021;-73
2022/10/08 09:59:46;;;;;;;2.53;1.40;;;;;;;;;;6154357;28;20050;-74
2022/10/08 10:02:51;;;;;;;1.33;1.20;;;;;;;;;;6169252;28;20026;-72
2022/10/08 10:05:52;;;;;;;0.55;0.55;;;;;;;;;;6168248;28;20015;-72
2022/10/08 10:09:12;;;;;;;1.05;1.05;;;;;;;;;;6156039;28;20281;-73
2022/10/08 10:12:20;;;;;;;0.85;0.85;;;;;;;;;;6161345;28;20026;-72
2022/10/08 10:15:23;;;;;;;0.63;0.63;;;;;;;;;;6167732;28;20105;-72
2022/10/08 10:18:43;;;;;;;1.15;1.02;;;;;;;;;;6170428;28;20113;-72
2022/10/08 10:21:49;;;;;;;1.23;1.13;;;;;;;;;;6143489;28;20034;-73
2022/10/08 10:25:05;;;;;;;0.70;0.70;;;;;;;;;;6168112;28;20027;-72
2022/10/08 10:28:07;;;;;;;0.65;0.65;;;;;;;;;;6169894;28;20517;-73
2022/10/08 10:31:30;;;;;;;2.17;1.80;;;;;;;;;;6167384;28;20026;-73
2022/10/08 10:34:31;;;;;;;0.63;0.63;;;;;;;;;;6162425;28;20038;-72
2022/10/08 10:37:32;;;;;;;;;;;;;;;;;;6172211;28;20010;-72
2022/10/08 10:40:55;;;;;;;2.10;1.85;;;;;;;;;;6149817;28;19969;-72
2022/10/08 10:44:03;;;;;;;1.08;1.05;;;;;;;;;;6168863;28;20082;-73
2022/10/08 10:47:04;;;;;;;1.13;0.93;;;;;;;;;;6161815;28;20039;-73
2022/10/08 10:50:04;;;;;;;4.88;3.40;;;;;;;;;;6161122;28;20074;-74
2022/10/08 10:53:17;;;;;;;1.03;0.97;;;;;;;;;;6145704;28;20459;-74
2022/10/08 10:56:19;;;;;;;1.17;1.08;;;;;;;;;;6165745;28;20019;-73
2022/10/08 10:59:46;;;;;;;2.25;1.65;;;;;;;;;;6171571;28;20374;-73
2022/10/08 11:02:50;;;;;;;2.35;2.03;;;;;;;;;;6157943;28;20397;-75
2022/10/08 11:05:55;;;;;;;1.13;0.88;;;;;;;;;;6155357;28;20030;-73
2022/10/08 11:09:13;;;;;;;1.25;1.15;;;;;;;;;;6165356;28;20034;-73
2022/10/08 11:12:29;;;;;;;2.05;1.85;;;;;;;;;;6169469;28;20114;-73
2022/10/08 11:15:39;;;;;;;5.72;2.28;;;;;;;;;;6171380;28;20033;-72
2022/10/08 11:18:47;;;;;;;4.88;2.35;;;;;;;;;;6159189;28;20120;-72
2022/10/08 11:22:04;;;;;;;1.63;1.52;;;;;;;;;;6153242;28;20031;-73
2022/10/08 11:25:10;;;;;;;2.53;2.13;;;;;;;;;;6171252;28;20015;-73
2022/10/08 11:28:14;;;;;;;3.85;1.52;;;;;;;;;;6147604;28;20015;-72
2022/10/08 11:31:43;;;;;;;1.55;1.45;;;;;;;;;;6161737;28;20085;-74
2022/10/08 11:35:03;;;;;;;1.42;1.33;;;;;;;;;;6137991;28;20042;-74
2022/10/08 11:38:17;;;;;;;1.70;1.15;;;;;;;;;;6163179;28;20042;-73
2022/10/08 11:41:21;;;;;;;3.22;2.60;;;;;;;;;;6152333;28;20011;-74
2022/10/08 11:44:21;;;;;;;1.65;0.93;;;;;;;;;;6161044;28;20062;-72
2022/10/08 11:47:39;;;;;;;8.23;1.20;;;;;;;;;;6163257;28;20023;-73
2022/10/08 11:50:40;;;;;;;3.85;2.15;;;;;;;;;;6159036;28;20502;-73
2022/10/08 11:53:40;;;;;;;1.67;0.87;;;;;;;;;;6165145;28;20054;-73
2022/10/08 11:56:45;;;;;;;0.93;0.83;;;;;;;;;;6158589;28;20034;-73
2022/10/08 11:59:55;;;;;;;1.85;1.65;;;;;;;;;;6151490;28;20030;-74
2022/10/08 12:02:56;;;;;;;3.00;1.17;;;;;;;;;;6156880;28;20030;-73
2022/10/08 12:05:57;;;;;;;3.47;2.67;;;;;;;;;;6168918;28;20028;-73
2022/10/08 12:08:58;;;;;;;2.60;1.52;;;;;;;;;;6162221;28;20015;-72
2022/10/08 12:12:10;;;;;;;1.30;1.23;;;;;;;;;;6158270;28;20023;-73
2022/10/08 12:15:23;;;;;;;0.47;0.47;;;;;;;;;;6166453;28;20378;-72
2022/10/08 12:18:24;;;;;;;1.30;1.17;;;;;;;;;;6153170;28;20037;-73
2022/10/08 12:21:27;;;;;;;1.23;1.13;;;;;;;;;;6170172;28;20049;-73
2022/10/08 12:24:36;;;;;;;1.13;0.98;;;;;;;;;;6173218;28;20100;-73
2022/10/08 12:27:36;;;;;;;1.65;1.55;;;;;;;;;;6159035;28;20078;-73
2022/10/08 12:30:55;;;;;;;3.50;1.00;;;;;;;;;;6155728;28;20018;-73
2022/10/08 12:34:00;;;;;;;4.65;2.40;;;;;;;;;;6172393;28;20026;-72
2022/10/08 12:37:04;;;;;;;0.32;0.32;;;;;;;;;;6170488;28;20030;-73
2022/10/08 12:40:18;;;;;;;1.05;0.73;;;;;;;;;;6150750;28;20039;-72
2022/10/08 12:43:37;;;;;;;0.90;0.90;;;;;;;;;;6173657;28;20030;-72
2022/10/08 12:46:37;;;;;;;0.80;0.80;;;;;;;;;;6168626;28;20606;-72
2022/10/08 12:49:41;;;;;;;0.70;0.70;;;;;;;;;;6178338;28;20463;-73
2022/10/08 12:52:41;;;;;;;0.68;0.68;;;;;;;;;;6167387;28;20026;-72
2022/10/08 12:55:44;;;;;;;0.37;0.37;;;;;;;;;;6170091;28;20066;-73
2022/10/08 12:58:45;;;;;;;2.83;2.08;;;;;;;;;;6174414;28;20036;-73
2022/10/08 13:01:46;;;;;;;1.45;1.05;;;;;;;;;;6169694;28;20035;-73
2022/10/08 13:04:46;;;;;;;1.23;1.10;;;;;;;;;;6168568;28;20030;-73
2022/10/08 13:07:46;;;;;;;0.63;0.63;;;;;;;;;;6161307;28;20383;-73
2022/10/08 13:10:46;;;;;;;0.67;0.67;;;;;;;;;;6171885;28;20099;-72
2022/10/08 13:13:50;;;;;;;3.73;2.33;;;;;;;;;;6167071;28;20073;-73
2022/10/08 13:16:50;;;;;;;1.35;1.25;;;;;;;;;;6173132;28;20023;-72
2022/10/08 13:20:01;;;;;;;1.87;1.47;;;;;;;;;;6173209;28;20382;-72
2022/10/08 13:23:01;;;;;;;0.30;0.30;;;;;;;;;;6171767;28;20120;-72
2022/10/08 13:26:02;;;;;;;1.70;1.40;;;;;;;;;;6171653;28;20015;-73
2022/10/08 13:29:17;;;;;;;0.23;0.23;;;;;;;;;;6169462;28;20051;-72
2022/10/08 13:32:23;;;;;;;3.15;1.92;;;;;;;;;;6156461;28;20030;-73
2022/10/08 13:35:23;;;;;;;1.13;0.75;;;;;;;;;;6175176;28;20014;-72
2022/10/08 13:38:26;;;;;;;1.67;1.30;;;;;;;;;;6169868;28;20026;-72
2022/10/08 13:41:26;;;;;;;1.05;0.90;;;;;;;;;;6172547;28;20486;-72
2022/10/08 13:44:26;;;;;;;2.00;1.90;;;;;;;;;;6172254;28;20078;-72
2022/10/08 13:47:27;;;;;;;1.80;1.70;;;;;;;;;;6167483;28;20025;-72
2022/10/08 13:50:28;;;;;;;1.85;1.65;;;;;;;;;;6175022;28;20019;-73
2022/10/08 13:53:29;;;;;;;0.73;0.73;;;;;;;;;;6166143;28;20022;-73
2022/10/08 13:56:29;;;;;;;3.42;1.85;;;;;;;;;;6155627;28;20102;-73
2022/10/08 13:59:29;;;;;;;1.50;1.43;;;;;;;;;;6178033;28;20076;-73
2022/10/08 14:02:29;;;;;;;0.98;0.73;;;;;;;;;;6163507;28;20066;-73
2022/10/08 14:05:31;;;;;;;2.38;2.17;;;;;;;;;;6174924;28;20433;-72
2022/10/08 14:08:33;;;;;;;2.83;2.63;;;;;;;;;;6171918;28;20529;-73
2022/10/08 14:11:33;;;;;;;2.60;0.85;;;;;;;;;;6156022;28;20023;-74
2022/10/08 14:14:33;;;;;;;1.97;1.87;;;;;;;;;;6172494;28;20041;-72
2022/10/08 14:17:34;;;;;;;1.38;1.27;;;;;;;;;;6168885;28;20030;-72
2022/10/08 14:20:34;;;;;;;2.72;1.55;;;;;;;;;;6167364;28;20111;-73
2022/10/08 14:23:35;;;;;;;8.27;2.78;;;;;;;;;;6155986;28;20019;-72
2022/10/08 14:26:35;;;;;;;2.13;1.47;;;;;;;;;;6155192;28;20030;-72
2022/10/08 14:29:35;;;;;;;2.70;2.17;;;;;;;;;;6172271;28;20079;-72
2022/10/08 14:32:36;;;;;;;2.33;1.63;;;;;;;;;;6169864;28;20058;-72
2022/10/08 14:35:36;;;;;;;1.17;1.07;;;;;;;;;;6151271;28;20086;-73
2022/10/08 14:38:36;;;;;;;3.28;1.75;;;;;;;;;;6153117;28;20043;-72
2022/10/08 14:41:38;;;;;;;1.83;1.73;;;;;;;;;;6157523;28;20467;-72
2022/10/08 14:44:39;;;;;;;1.17;1.15;;;;;;;;;;6173992;28;20034;-72
2022/10/08 14:47:39;;;;;;;3.25;0.75;;;;;;;;;;6168522;28;20068;-72
2022/10/08 14:50:39;;;;;;;1.67;1.57;;;;;;;;;;6167454;28;20014;-72
2022/10/08 14:53:40;;;;;;;3.55;3.15;;;;;;;;;;6170199;28;20018;-73
2022/10/08 14:56:41;;;;;;;1.70;1.47;;;;;;;;;;6177558;28;20033;-73
2022/10/08 14:59:41;;;;;;;;;;;;;;;;;;6171744;28;20101;-73
2022/10/08 15:02:42;;;;;;;11.38;2.67;;;;;;;;;;6171652;28;19976;-73
2022/10/08 15:05:42;;;;;;;4.90;1.95;;;;;;;;;;6170180;28;20378;-73
2022/10/08 15:08:42;;;;;;;0.83;0.83;;;;;;;;;;6172309;28;20014;-73
2022/10/08 15:11:42;;;;;;;1.40;1.30;;;;;;;;;;6170988;28;20052;-72
2022/10/08 15:14:43;;;;;;;2.77;1.67;;;;;;;;;;6150620;28;20379;-73
2022/10/08 15:17:43;;;;;;;2.53;2.40;;;;;;;;;;6161306;28;20019;-73
2022/10/08 15:20:43;;;;;;;4.30;3.80;;;;;;;;;;6171317;28;20016;-72
2022/10/08 15:23:43;;;;;;;2.93;1.60;;;;;;;;;;6156177;28;20026;-72
2022/10/08 15:26:44;;;;;;;1.27;1.10;;;;;;;;;;6176788;28;20188;-73
2022/10/08 15:29:44;;;;;;;1.60;1.50;;;;;;;;;;6156980;28;20022;-73
2022/10/08 15:32:44;;;;;;;2.95;2.38;;;;;;;;;;6168534;28;20026;-72
2022/10/08 15:35:44;;;;;;;2.13;1.93;;;;;;;;;;6170261;28;20015;-73
2022/10/08 15:38:45;;;;;;;2.85;1.40;;;;;;;;;;6175177;28;20113;-73
2022/10/08 15:41:47;;;;;;;4.47;2.83;;;;;;;;;;6166128;28;20027;-73
2022/10/08 15:44:47;;;;;;;0.57;0.57;;;;;;;;;;6174345;28;20043;-73
2022/10/08 15:47:47;;;;;;;1.43;1.30;;;;;;;;;;6171362;28;20050;-73
2022/10/08 15:50:55;;;;;;;3.63;3.33;;;;;;;;;;6153657;28;20033;-73
2022/10/08 15:53:59;;;;;;;9.13;2.90;;;;;;;;;;6176211;28;20516;-72
2022/10/08 15:56:59;;;;;;;2.80;1.67;;;;;;;;;;6155415;28;20082;-72
2022/10/08 16:00:00;;;;;;;3.30;3.00;;;;;;;;;;6172397;28;20018;-73
2022/10/08 16:03:00;;;;;;;4.27;3.57;;;;;;;;;;6173951;28;20039;-73
2022/10/08 16:06:00;;;;;;;7.87;4.27;;;;;;;;;;6175380;28;20074;-71
2022/10/08 16:09:01;;;;;;;3.33;2.90;;;;;;;;;;6146479;28;20111;-74
2022/10/08 16:12:01;;;;;;;4.00;3.70;;;;;;;;;;6163760;28;20073;-73
2022/10/08 16:15:02;;;;;;;32.37;21.50;;;;;;;;;;6165823;28;20011;-73
2022/10/08 16:18:02;;;;;;;36.50;22.13;;;;;;;;;;6163953;28;20502;-73
2022/10/08 16:21:03;;;;;;;43.23;26.13;;;;;;;;;;6155244;28;20491;-73
2022/10/08 16:24:03;;;;;;;50.83;29.17;;;;;;;;;;6162365;28;20019;-73
2022/10/08 16:27:04;;;;;;;43.03;26.57;;;;;;;;;;6164614;28;20361;-72
2022/10/08 16:30:04;;;;;;;35.83;23.97;;;;;;;;;;6161006;28;20030;-73
2022/10/08 16:33:05;;;;;;;42.70;26.87;;;;;;;;;;6163793;28;20022;-72
2022/10/08 16:36:06;;;;;;;55.10;34.93;;;;;;;;;;6157397;28;20114;-73
2022/10/08 16:39:07;;;;;;;53.33;34.25;;;;;;;;;;6167920;28;20053;-73
2022/10/08 16:42:07;;;;;;;61.20;41.40;;;;;;;;;;6159543;28;20025;-72
2022/10/08 16:45:08;;;;;;;56.47;37.40;;;;;;;;;;6164890;28;20043;-74
2022/10/08 16:48:08;;;;;;;50.50;31.73;;;;;;;;;;6164530;28;20360;-73
2022/10/08 16:51:10;;;;;;;64.53;42.13;;;;;;;;;;6165474;28;20019;-73
2022/10/08 16:54:12;;;;;;;79.25;46.83;;;;;;;;;;6169415;28;20026;-73
2022/10/08 16:57:12;;;;;;;78.95;47.33;;;;;;;;;;6170504;28;20022;-73
2022/10/08 17:00:13;;;;;;;77.40;51.00;;;;;;;;;;6152087;28;20027;-75
2022/10/08 17:03:13;;;;;;;106.73;69.60;;;;;;;;;;6166200;28;20031;-73
2022/10/08 17:06:14;;;;;;;98.17;64.37;;;;;;;;;;6143423;28;20422;-73
2022/10/08 17:09:14;;;;;;;76.17;55.90;;;;;;;;;;6164551;28;20469;-73
2022/10/08 17:12:14;;;;;;;58.53;40.37;;;;;;;;;;6169285;28;20078;-74
2022/10/08 17:15:15;;;;;;;52.63;36.33;;;;;;;;;;6166709;28;20014;-73
2022/10/08 17:18:15;;;;;;;54.80;37.70;;;;;;;;;;6164733;28;20026;-73
2022/10/08 17:21:15;;;;;;;50.73;36.60;;;;;;;;;;6166135;28;20027;-73
2022/10/08 17:24:15;;;;;;;55.60;40.40;;;;;;;;;;6163245;28;20058;-76
2022/10/08 17:27:15;;;;;;;42.60;29.47;;;;;;;;;;6162063;28;20027;-73
2022/10/08 17:30:16;;;;;;;44.47;30.40;;;;;;;;;;6161598;28;20352;-73
2022/10/08 17:33:16;;;;;;;51.27;32.93;;;;;;;;;;6162977;28;20104;-73
2022/10/08 17:36:18;;;;;;;50.75;34.50;;;;;;;;;;6166862;28;20481;-73
2022/10/08 17:39:19;;;;;;;;;;;;;;;;;;6170453;28;20094;-73
2022/10/08 17:42:20;;;;;;;54.43;37.93;;;;;;;;;;6171095;28;19914;-74
2022/10/08 17:45:21;;;;;;;52.42;32.85;;;;;;;;;;6152925;28;20097;-74
2022/10/08 17:48:21;;;;;;;52.67;35.00;;;;;;;;;;6165074;28;21019;-73
2022/10/08 17:51:23;;;;;;;62.20;36.33;;;;;;;;;;6153551;28;20272;-73
2022/10/08 17:54:23;;;;;;;;;;;;;;;;;;6154387;28;20019;-73
2022/10/08 17:57:23;;;;;;;72.22;40.60;;;;;;;;;;6170112;28;19917;-74
2022/10/08 18:00:24;;;;;;;63.37;41.23;;;;;;;;;;6168808;28;20370;-74
2022/10/08 18:03:24;;;;;;;59.67;38.50;;;;;;;;;;6161768;28;20113;-74
2022/10/08 18:06:25;;;;;;;61.27;39.10;;;;;;;;;;6166810;28;20025;-73
2022/10/08 18:09:25;;;;;;;70.73;40.33;;;;;;;;;;6167430;28;20019;-74
2022/10/08 18:12:26;;;;;;;66.40;41.13;;;;;;;;;;6170788;28;20026;-73
2022/10/08 18:15:26;;;;;;;63.33;39.97;;;;;;;;;;6171541;28;20357;-73